createdAt,value
2017-09-18T00:00:17.166Z,6.47
2017-09-18T00:05:19.033Z,6.47
2017-09-18T00:10:20.904Z,7.97
2017-09-18T00:15:23.397Z,8.60
2017-09-18T00:20:25.181Z,9.80
2017-09-18T00:25:26.988Z,7.27
2017-09-18T00:30:28.728Z,11.70
2017-09-18T00:35:30.608Z,9.03
2017-09-18T00:40:32.492Z,7.60
2017-09-18T00:45:34.376Z,9.00
2017-09-18T00:50:36.287Z,8.67
2017-09-18T00:55:38.164Z,10.60
2017-09-18T01:00:40.018Z,9.20
2017-09-18T01:05:41.885Z,13.57
2017-09-18T01:10:43.732Z,10.20
2017-09-18T01:15:45.534Z,9.20
2017-09-18T01:20:47.258Z,8.23
2017-09-18T01:25:49.072Z,12.30
2017-09-18T01:30:50.943Z,9.50
2017-09-18T01:35:53.440Z,9.53
2017-09-18T01:40:55.395Z,8.87
2017-09-18T01:45:57.185Z,9.73
2017-09-18T01:50:59.674Z,7.83
2017-09-18T01:56:01.565Z,7.93
2017-09-18T02:01:03.429Z,8.27
2017-09-18T02:06:05.931Z,8.37
2017-09-18T02:11:07.809Z,8.43
2017-09-18T02:16:10.733Z,8.07
2017-09-18T02:21:12.489Z,8.93
2017-09-18T02:26:14.362Z,9.30
2017-09-18T02:31:16.220Z,10.53
2017-09-18T02:36:20.745Z,9.83
2017-09-18T02:41:38.407Z,13.67
2017-09-18T02:46:58.880Z,13.90
2017-09-18T02:52:18.465Z,17.03
2017-09-18T02:57:37.878Z,12.50
2017-09-18T03:02:57.565Z,12.90
2017-09-18T03:08:18.829Z,8.80
2017-09-18T03:13:38.707Z,9.17
2017-09-18T03:18:43.400Z,18.40
2017-09-18T03:23:45.304Z,12.53
2017-09-18T03:28:47.149Z,16.70
2017-09-18T03:33:48.913Z,15.67
2017-09-18T03:38:51.423Z,11.37
2017-09-18T03:43:53.347Z,15.10
2017-09-18T03:48:55.169Z,12.87
2017-09-18T03:53:57.060Z,18.17
2017-09-18T03:58:58.824Z,16.57
2017-09-18T04:04:00.940Z,13.37
2017-09-18T04:09:03.050Z,15.43
2017-09-18T04:14:04.927Z,12.80
2017-09-18T04:19:06.824Z,17.10
2017-09-18T04:24:08.758Z,16.67
2017-09-18T04:29:10.593Z,15.30
2017-09-18T04:34:14.112Z,12.33
2017-09-18T04:39:16.055Z,16.53
2017-09-18T04:44:17.937Z,15.50
2017-09-18T04:49:19.737Z,15.10
2017-09-18T04:54:22.508Z,16.00
2017-09-18T04:59:24.998Z,15.20
2017-09-18T05:04:27.779Z,13.47
2017-09-18T05:09:29.497Z,17.20
2017-09-18T05:14:32.001Z,17.97
2017-09-18T05:19:33.876Z,17.13
2017-09-18T05:24:38.179Z,18.50
2017-09-18T05:29:40.154Z,17.90
2017-09-18T05:34:43.228Z,20.97
2017-09-18T05:39:45.137Z,19.10
2017-09-18T05:44:46.950Z,22.10
2017-09-18T05:49:48.822Z,18.60
2017-09-18T05:54:51.383Z,20.73
2017-09-18T05:59:54.152Z,15.37
2017-09-18T06:04:56.033Z,15.97
2017-09-18T06:09:58.533Z,17.13
2017-09-18T06:15:00.400Z,17.27
2017-09-18T06:20:02.306Z,15.87
2017-09-18T06:25:05.004Z,15.67
2017-09-18T06:30:06.886Z,10.37
2017-09-18T06:35:09.720Z,13.30
2017-09-18T06:40:12.509Z,14.50
2017-09-18T06:45:15.073Z,12.50
2017-09-18T06:50:16.951Z,10.87
2017-09-18T06:55:18.827Z,10.53
2017-09-18T07:00:20.632Z,7.60
2017-09-18T07:05:23.770Z,13.87
2017-09-18T07:10:25.585Z,8.00
2017-09-18T07:15:28.420Z,9.00
2017-09-18T07:20:30.854Z,9.50
2017-09-18T07:25:32.654Z,5.27
2017-09-18T07:30:34.465Z,7.07
2017-09-18T07:35:36.406Z,4.43
2017-09-18T07:40:38.387Z,5.37
2017-09-18T07:45:40.237Z,6.47
2017-09-18T07:50:42.142Z,5.77
2017-09-18T07:55:44.019Z,4.30
2017-09-18T08:00:45.838Z,3.30
2017-09-18T08:05:48.695Z,4.10
2017-09-18T08:10:50.553Z,5.40
2017-09-18T08:15:53.317Z,7.30
2017-09-18T08:20:57.132Z,7.57
2017-09-18T08:26:00.095Z,6.70
2017-09-18T08:31:02.154Z,8.80
2017-09-18T08:36:04.261Z,13.33
2017-09-18T08:41:07.100Z,9.30
2017-09-18T08:46:08.939Z,7.80
2017-09-18T08:51:11.022Z,7.20
2017-09-18T08:56:12.833Z,5.83
2017-09-18T09:01:14.743Z,6.40
2017-09-18T09:06:18.132Z,9.53
2017-09-18T09:11:20.184Z,7.03
2017-09-18T09:16:23.886Z,7.30
2017-09-18T09:21:25.693Z,6.90
2017-09-18T09:26:28.359Z,7.40
2017-09-18T09:31:30.731Z,6.63
2017-09-18T09:36:32.643Z,6.20
2017-09-18T09:41:34.537Z,6.07
2017-09-18T09:46:36.421Z,5.17
2017-09-18T09:51:38.309Z,7.17
2017-09-18T09:56:40.060Z,8.03
2017-09-18T10:01:42.553Z,5.93
2017-09-18T10:06:45.361Z,5.30
2017-09-18T10:11:47.232Z,5.27
2017-09-18T10:16:50.748Z,7.33
2017-09-18T10:21:53.271Z,9.33
2017-09-18T10:26:55.008Z,5.60
2017-09-18T10:31:58.243Z,7.77
2017-09-18T10:36:59.996Z,8.47
2017-09-18T10:42:01.780Z,12.27
2017-09-18T10:47:03.585Z,5.07
2017-09-18T10:52:05.433Z,7.03
2017-09-18T10:57:07.211Z,4.30
2017-09-18T11:02:09.108Z,5.17
2017-09-18T11:07:10.960Z,4.90
2017-09-18T11:12:13.443Z,4.53
2017-09-18T11:17:15.940Z,5.47
2017-09-18T11:22:18.437Z,4.33
2017-09-18T11:27:20.331Z,4.13
2017-09-18T11:32:22.171Z,9.67
2017-09-18T11:37:24.675Z,4.37
2017-09-18T11:42:26.547Z,4.93
2017-09-18T11:47:29.057Z,3.80
2017-09-18T11:52:30.968Z,3.53
2017-09-18T11:57:32.787Z,2.23
2017-09-18T12:02:35.318Z,2.60
2017-09-18T12:07:37.081Z,3.50
2017-09-18T12:12:38.945Z,2.70
2017-09-18T12:17:42.460Z,2.43
2017-09-18T12:22:44.983Z,2.53
2017-09-18T12:27:46.837Z,3.90
2017-09-18T12:32:48.717Z,3.93
2017-09-18T12:37:50.586Z,2.00
2017-09-18T12:42:54.109Z,2.57
2017-09-18T12:47:55.989Z,5.20
2017-09-18T12:52:57.864Z,4.27
2017-09-18T12:57:59.628Z,2.47
2017-09-18T13:03:01.412Z,1.87
2017-09-18T13:08:03.299Z,2.37
2017-09-18T13:13:05.175Z,1.20
2017-09-18T13:18:07.866Z,1.20
2017-09-18T13:23:09.732Z,1.73
2017-09-18T13:28:11.512Z,1.80
2017-09-18T13:33:13.393Z,2.90
2017-09-18T13:38:15.267Z,2.93
2017-09-18T13:43:17.148Z,2.40
2017-09-18T13:48:19.021Z,2.00
2017-09-18T13:53:21.507Z,1.97
2017-09-18T13:58:23.284Z,1.83
2017-09-18T14:03:25.189Z,1.60
2017-09-18T14:08:27.081Z,4.40
2017-09-18T14:13:30.768Z,3.00
2017-09-18T14:18:32.648Z,1.90
2017-09-18T14:23:39.232Z,5.20
2017-09-18T14:28:41.111Z,1.60
2017-09-18T14:33:43.009Z,1.73
2017-09-18T14:38:44.933Z,2.00
2017-09-18T14:43:46.764Z,3.27
2017-09-18T14:48:48.633Z,1.90
2017-09-18T14:53:51.331Z,1.93
2017-09-18T14:58:53.208Z,3.53
2017-09-18T15:03:58.246Z,2.40
2017-09-18T15:09:00.024Z,2.83
2017-09-18T15:14:01.917Z,2.03
2017-09-18T15:19:03.677Z,2.10
2017-09-18T15:24:05.585Z,2.10
2017-09-18T15:29:07.449Z,2.47
2017-09-18T15:34:09.308Z,5.90
2017-09-18T15:39:12.837Z,2.07
2017-09-18T15:44:14.600Z,2.00
2017-09-18T15:49:16.790Z,1.87
2017-09-18T15:54:18.692Z,1.70
2017-09-18T15:59:20.532Z,1.57
2017-09-18T16:04:25.084Z,2.70
2017-09-18T16:09:26.859Z,1.60
2017-09-18T16:14:28.649Z,2.50
2017-09-18T16:19:30.517Z,2.07
2017-09-18T16:24:32.390Z,1.93
2017-09-18T16:29:34.336Z,1.80
2017-09-18T16:34:36.369Z,2.33
2017-09-18T16:39:38.232Z,1.63
2017-09-18T16:44:40.108Z,2.00
2017-09-18T16:49:41.972Z,16.23
2017-09-18T16:54:43.854Z,3.30
2017-09-18T16:59:45.624Z,2.20
2017-09-18T17:04:47.455Z,2.73
2017-09-18T17:09:49.300Z,5.10
2017-09-18T17:14:51.165Z,5.07
2017-09-18T17:19:53.089Z,4.17
2017-09-18T17:24:54.924Z,3.90
2017-09-18T17:29:56.792Z,5.70
2017-09-18T17:34:58.564Z,6.87
2017-09-18T17:40:00.441Z,4.10
2017-09-18T17:45:02.364Z,5.17
2017-09-18T17:50:04.218Z,10.10
2017-09-18T17:55:06.093Z,6.13
2017-09-18T18:00:07.964Z,3.73
2017-09-18T18:05:09.877Z,5.27
2017-09-18T18:10:12.731Z,6.13
2017-09-18T18:15:14.633Z,5.10
2017-09-18T18:20:22.369Z,5.13
2017-09-18T18:25:24.107Z,3.10
2017-09-18T18:30:25.920Z,3.53
2017-09-18T18:35:30.455Z,5.20
2017-09-18T18:40:35.701Z,3.07
2017-09-18T18:45:37.956Z,3.03
2017-09-18T18:50:39.837Z,2.47
2017-09-18T18:55:41.613Z,2.27
2017-09-18T19:00:43.501Z,2.07
2017-09-18T19:05:45.363Z,2.97
2017-09-18T19:10:47.168Z,2.07
2017-09-18T19:15:49.032Z,2.50
2017-09-18T19:20:52.916Z,4.37
2017-09-18T19:25:54.740Z,2.67
2017-09-18T19:30:56.605Z,3.30
2017-09-18T19:35:58.500Z,3.17
2017-09-18T19:41:00.423Z,2.73
2017-09-18T19:46:02.237Z,4.03
2017-09-18T19:51:04.226Z,1.90
2017-09-18T19:56:06.817Z,2.80
2017-09-18T20:01:08.689Z,3.47
2017-09-18T20:06:10.592Z,2.13
2017-09-18T20:11:12.536Z,2.50
2017-09-18T20:16:14.334Z,8.50
2017-09-18T20:21:16.306Z,3.83
2017-09-18T20:26:20.216Z,3.00
2017-09-18T20:31:23.021Z,4.83
2017-09-18T20:36:25.028Z,4.70
2017-09-18T20:41:26.804Z,3.23
2017-09-18T20:46:28.628Z,3.90
2017-09-18T20:51:31.136Z,4.80
2017-09-18T20:56:33.003Z,7.70
2017-09-18T21:01:35.536Z,3.40
2017-09-18T21:06:37.376Z,5.50
2017-09-18T21:11:39.900Z,4.13
2017-09-18T21:16:41.749Z,3.70
2017-09-18T21:21:43.629Z,4.20
2017-09-18T21:26:45.496Z,4.17
2017-09-18T21:31:47.489Z,7.43
2017-09-18T21:36:49.416Z,3.73
2017-09-18T21:41:51.293Z,2.97
2017-09-18T21:46:53.112Z,4.50
2017-09-18T21:51:54.835Z,3.40
2017-09-18T21:56:56.689Z,2.87
2017-09-18T22:01:58.550Z,4.20
2017-09-18T22:07:00.308Z,2.67
2017-09-18T22:12:02.820Z,4.60
2017-09-18T22:17:04.692Z,3.43
2017-09-18T22:22:06.568Z,4.00
2017-09-18T22:27:08.433Z,3.80
2017-09-18T22:32:10.973Z,6.30
2017-09-18T22:37:12.853Z,6.33
2017-09-18T22:42:14.692Z,5.27
2017-09-18T22:47:16.568Z,7.63
2017-09-18T22:52:18.443Z,3.60
2017-09-18T22:57:20.337Z,5.70
2017-09-18T23:02:22.248Z,5.37
2017-09-18T23:07:24.086Z,6.70
2017-09-18T23:12:25.961Z,4.53
2017-09-18T23:17:27.824Z,4.80
2017-09-18T23:22:30.320Z,5.70
2017-09-18T23:27:32.192Z,7.80
2017-09-18T23:32:34.691Z,6.43
2017-09-18T23:37:36.569Z,6.50
2017-09-18T23:42:38.453Z,5.03
2017-09-18T23:47:40.357Z,5.10
2017-09-18T23:52:42.191Z,4.57
2017-09-18T23:57:44.069Z,5.17
